createdAt,value
2019-02-04T00:03:29.026Z,9.47
2019-02-04T00:05:58.416Z,7.37
2019-02-04T00:08:40.787Z,7.47
2019-02-04T00:11:29.055Z,8.47
2019-02-04T00:16:51.773Z,10.43
2019-02-04T00:19:21.192Z,10.37
2019-02-04T00:21:50.476Z,8.23
2019-02-04T00:24:20.332Z,11.00
2019-02-04T00:26:51.513Z,11.03
2019-02-04T00:29:21.119Z,8.53
2019-02-04T00:31:50.397Z,10.03
2019-02-04T00:34:19.879Z,12.67
2019-02-04T00:36:49.176Z,11.03
2019-02-04T00:39:37.504Z,13.77
2019-02-04T00:42:07.338Z,8.23
2019-02-04T00:44:36.621Z,8.27
2019-02-04T00:47:06.241Z,7.77
2019-02-04T00:49:35.537Z,10.27
2019-02-04T00:52:05.429Z,9.07
2019-02-04T00:54:34.749Z,7.83
2019-02-04T00:57:04.279Z,9.93
2019-02-04T00:59:33.555Z,10.77
2019-02-04T01:02:03.233Z,11.80
2019-02-04T01:04:32.520Z,9.87
2019-02-04T01:07:02.232Z,6.70
2019-02-04T01:09:31.550Z,10.10
2019-02-04T01:12:19.898Z,9.13
2019-02-04T01:14:49.334Z,11.40
2019-02-04T01:17:18.627Z,8.50
2019-02-04T01:19:48.134Z,8.00
2019-02-04T01:22:17.410Z,6.97
2019-02-04T01:24:48.140Z,12.90
2019-02-04T01:27:17.778Z,12.63
2019-02-04T01:30:06.255Z,7.43
2019-02-04T01:32:35.811Z,9.87
2019-02-04T01:35:06.090Z,15.53
2019-02-04T01:37:54.451Z,7.93
2019-02-04T01:40:25.253Z,10.10
2019-02-04T01:42:55.146Z,16.20
2019-02-04T01:45:45.020Z,6.97
2019-02-04T01:48:14.311Z,9.90
2019-02-04T01:50:43.717Z,8.33
2019-02-04T01:53:12.991Z,9.43
2019-02-04T01:55:42.322Z,8.97
2019-02-04T01:58:11.656Z,8.17
2019-02-04T02:00:41.207Z,13.60
2019-02-04T02:03:10.484Z,7.23
2019-02-04T02:05:39.867Z,8.20
2019-02-04T02:08:09.172Z,10.00
2019-02-04T02:10:38.502Z,9.53
2019-02-04T02:13:08.121Z,8.53
2019-02-04T02:15:37.403Z,9.27
2019-02-04T02:18:06.887Z,7.00
2019-02-04T02:20:36.271Z,10.73
2019-02-04T02:23:05.779Z,7.53
2019-02-04T02:25:35.165Z,10.10
2019-02-04T02:28:25.483Z,10.77
2019-02-04T02:30:54.822Z,10.93
2019-02-04T02:33:24.144Z,6.93
2019-02-04T02:35:53.430Z,7.57
2019-02-04T02:38:24.480Z,9.23
2019-02-04T02:40:53.773Z,11.07
2019-02-04T02:43:42.127Z,10.10
2019-02-04T02:46:11.416Z,11.63
2019-02-04T02:48:59.754Z,11.53
2019-02-04T02:51:29.103Z,9.93
2019-02-04T02:53:58.414Z,6.83
2019-02-04T02:56:28.039Z,12.67
2019-02-04T02:58:57.319Z,10.00
2019-02-04T03:01:26.722Z,10.23
2019-02-04T03:03:55.994Z,10.93
2019-02-04T03:06:25.365Z,17.00
2019-02-04T03:08:54.843Z,8.93
2019-02-04T03:11:24.469Z,19.00
2019-02-04T03:13:53.789Z,8.10
2019-02-04T03:16:23.222Z,10.07
2019-02-04T03:18:52.520Z,13.53
2019-02-04T03:23:57.366Z,8.07
2019-02-04T03:26:26.691Z,15.43
2019-02-04T03:28:56.192Z,12.97
2019-02-04T03:34:19.846Z,7.53
2019-02-04T03:36:50.908Z,9.07
2019-02-04T03:42:08.929Z,18.07
2019-02-04T03:44:38.207Z,7.57
2019-02-04T03:47:09.473Z,5.40
2019-02-04T03:49:38.765Z,13.93
2019-02-04T03:52:08.299Z,16.23
2019-02-04T03:54:37.621Z,12.00
2019-02-04T03:57:07.212Z,8.27
2019-02-04T03:59:36.490Z,5.47
2019-02-04T04:02:06.082Z,9.37
2019-02-04T04:04:35.356Z,11.60
2019-02-04T04:07:05.034Z,10.23
2019-02-04T04:09:34.303Z,7.73
2019-02-04T04:14:52.270Z,9.37
2019-02-04T04:17:21.552Z,8.60
2019-02-04T04:19:51.324Z,13.90
2019-02-04T04:22:20.608Z,4.63
2019-02-04T04:27:39.526Z,12.03
2019-02-04T04:30:13.108Z,13.63
2019-02-04T04:32:42.387Z,7.33
2019-02-04T04:35:13.736Z,5.63
2019-02-04T04:37:43.028Z,9.63
2019-02-04T04:43:12.546Z,6.30
2019-02-04T04:45:41.841Z,7.63
2019-02-04T04:48:11.134Z,12.73
2019-02-04T04:50:59.471Z,12.00
2019-02-04T04:53:28.766Z,6.03
2019-02-04T04:55:58.106Z,5.80
2019-02-04T04:58:27.383Z,8.87
2019-02-04T05:00:56.793Z,12.47
2019-02-04T05:03:26.122Z,7.57
2019-02-04T05:05:55.404Z,7.73
2019-02-04T05:08:43.668Z,8.13
2019-02-04T05:11:13.137Z,12.00
2019-02-04T05:13:42.415Z,6.27
2019-02-04T05:16:11.920Z,5.87
2019-02-04T05:18:41.287Z,10.80
2019-02-04T05:21:29.682Z,12.13
2019-02-04T05:23:59.173Z,5.07
2019-02-04T05:26:28.452Z,9.07
2019-02-04T05:28:58.107Z,8.43
2019-02-04T05:31:27.382Z,7.67
2019-02-04T05:33:56.948Z,6.23
2019-02-04T05:36:45.678Z,9.37
2019-02-04T05:39:14.967Z,9.33
2019-02-04T05:41:44.314Z,5.73
2019-02-04T05:44:13.576Z,10.37
2019-02-04T05:46:43.151Z,10.63
2019-02-04T05:49:31.758Z,4.90
2019-02-04T05:52:02.793Z,7.00
2019-02-04T05:54:32.288Z,5.97
2019-02-04T05:57:01.570Z,7.03
2019-02-04T05:59:31.060Z,6.77
2019-02-04T06:02:00.345Z,4.93
2019-02-04T06:04:29.816Z,6.60
2019-02-04T06:07:17.990Z,3.90
2019-02-04T06:09:47.272Z,9.63
2019-02-04T06:12:35.642Z,5.87
2019-02-04T06:15:06.267Z,8.80
2019-02-04T06:17:35.556Z,6.47
2019-02-04T06:20:25.397Z,7.07
2019-02-04T06:23:16.915Z,6.87
2019-02-04T06:26:05.190Z,6.87
2019-02-04T06:28:46.614Z,8.07
2019-02-04T06:31:15.902Z,4.23
2019-02-04T06:33:45.254Z,4.70
2019-02-04T06:36:14.544Z,5.90
2019-02-04T06:38:45.951Z,8.43
2019-02-04T06:41:15.575Z,5.13
2019-02-04T06:43:44.898Z,9.57
2019-02-04T06:46:14.237Z,4.13
2019-02-04T06:48:43.610Z,4.57
2019-02-04T06:51:12.969Z,10.40
2019-02-04T06:53:42.269Z,2.97
2019-02-04T06:56:11.607Z,5.87
2019-02-04T06:58:40.903Z,7.60
2019-02-04T07:01:10.193Z,8.87
2019-02-04T07:03:39.483Z,4.07
2019-02-04T07:06:08.912Z,4.40
2019-02-04T07:08:38.237Z,2.07
2019-02-04T07:11:07.827Z,13.00
2019-02-04T07:13:56.057Z,3.90
2019-02-04T07:16:25.351Z,5.17
2019-02-04T07:18:54.719Z,6.73
2019-02-04T07:21:24.362Z,3.93
2019-02-04T07:23:53.660Z,7.70
2019-02-04T07:26:23.244Z,2.57
2019-02-04T07:28:52.535Z,4.00
2019-02-04T07:31:22.813Z,7.67
2019-02-04T07:33:52.634Z,4.17
2019-02-04T07:36:22.363Z,6.87
2019-02-04T07:38:52.205Z,8.30
2019-02-04T07:41:22.043Z,9.50
2019-02-04T07:43:52.310Z,6.83
2019-02-04T07:46:24.959Z,3.73
2019-02-04T07:48:53.601Z,3.63
2019-02-04T07:54:00.341Z,5.10
2019-02-04T07:56:30.647Z,2.42
2019-02-04T07:59:02.077Z,7.40
2019-02-04T08:01:51.352Z,4.50
2019-02-04T08:04:21.366Z,9.33
2019-02-04T08:06:53.241Z,10.37
2019-02-04T08:09:43.298Z,7.47
2019-02-04T08:12:12.846Z,4.03
2019-02-04T08:17:17.893Z,2.73
2019-02-04T08:20:06.132Z,1.87
2019-02-04T08:22:35.450Z,1.27
2019-02-04T08:25:26.380Z,4.47
2019-02-04T08:27:56.266Z,4.57
2019-02-04T08:30:44.554Z,4.00
2019-02-04T08:33:20.923Z,10.13
2019-02-04T08:36:09.185Z,1.13
2019-02-04T08:38:38.470Z,3.17
2019-02-04T08:41:07.948Z,4.20
2019-02-04T08:43:37.251Z,1.80
2019-02-04T08:46:25.521Z,2.60
2019-02-04T08:48:55.434Z,1.13
2019-02-04T08:51:24.725Z,3.13
2019-02-04T08:53:54.410Z,3.97
2019-02-04T08:56:23.705Z,8.67
2019-02-04T08:58:53.186Z,2.40
2019-02-04T09:01:24.226Z,4.43
2019-02-04T09:03:53.619Z,8.43
2019-02-04T09:06:23.036Z,6.63
2019-02-04T09:09:11.424Z,1.93
2019-02-04T09:11:41.019Z,3.23
2019-02-04T09:14:10.373Z,3.60
2019-02-04T09:16:39.795Z,3.80
2019-02-04T09:19:09.246Z,5.20
2019-02-04T09:21:57.619Z,1.20
2019-02-04T09:24:27.427Z,6.47
2019-02-04T09:26:56.710Z,3.70
2019-02-04T09:32:01.645Z,2.47
2019-02-04T09:34:30.969Z,2.03
2019-02-04T09:37:01.964Z,5.20
2019-02-04T09:39:50.135Z,4.60
2019-02-04T09:42:19.449Z,2.63
2019-02-04T09:44:48.759Z,3.37
2019-02-04T09:47:18.043Z,8.37
2019-02-04T09:49:47.373Z,6.30
2019-02-04T09:52:16.672Z,3.90
2019-02-04T09:57:21.205Z,4.53
2019-02-04T09:59:50.640Z,2.43
2019-02-04T10:02:40.548Z,4.47
2019-02-04T10:05:11.455Z,5.93
2019-02-04T10:07:40.729Z,3.70
2019-02-04T10:10:11.571Z,6.00
2019-02-04T10:12:41.052Z,5.00
2019-02-04T10:15:13.213Z,3.13
2019-02-04T10:17:42.719Z,4.93
2019-02-04T10:20:34.811Z,3.50
2019-02-04T10:23:05.089Z,7.13
2019-02-04T10:25:35.942Z,7.83
2019-02-04T10:28:24.263Z,4.90
2019-02-04T10:30:53.657Z,2.77
2019-02-04T10:33:22.966Z,5.27
2019-02-04T10:36:11.268Z,3.43
2019-02-04T10:38:40.699Z,4.20
2019-02-04T10:41:10.006Z,6.13
2019-02-04T10:43:39.282Z,5.70
2019-02-04T10:46:08.624Z,4.53
2019-02-04T10:48:37.916Z,6.37
2019-02-04T10:51:07.319Z,8.23
2019-02-04T10:53:36.547Z,2.57
2019-02-04T10:58:40.993Z,4.20
2019-02-04T11:04:05.576Z,5.47
2019-02-04T11:06:35.002Z,4.23
2019-02-04T11:12:01.120Z,6.97
2019-02-04T11:14:32.085Z,5.27
2019-02-04T11:17:13.344Z,2.87
2019-02-04T11:19:42.647Z,1.93
2019-02-04T11:22:12.036Z,1.57
2019-02-04T11:25:00.642Z,2.73
2019-02-04T11:27:30.001Z,3.80
2019-02-04T11:29:59.415Z,0.90
2019-02-04T11:32:47.740Z,1.07
2019-02-04T11:35:17.355Z,1.03
2019-02-04T11:37:46.680Z,1.43
2019-02-04T11:40:56.581Z,0.80
2019-02-04T11:43:26.017Z,1.03
2019-02-04T11:45:55.474Z,2.13
2019-02-04T11:48:24.896Z,0.70
2019-02-04T11:50:54.170Z,0.73
2019-02-04T11:53:32.325Z,0.80
2019-02-04T11:55:54.714Z,1.90
2019-02-04T11:58:24.020Z,1.20
2019-02-04T12:00:53.368Z,2.00
2019-02-04T12:03:23.560Z,0.87
2019-02-04T12:05:53.089Z,0.60
2019-02-04T12:08:22.504Z,0.50
2019-02-04T12:14:11.328Z,1.23
2019-02-04T12:16:40.906Z,0.67
2019-02-04T12:19:10.328Z,1.33
2019-02-04T12:21:40.041Z,2.40
2019-02-04T12:24:11.963Z,1.47
2019-02-04T12:26:41.986Z,0.53
2019-02-04T12:29:11.352Z,0.40
2019-02-04T12:31:40.635Z,0.60
2019-02-04T12:34:28.997Z,1.60
2019-02-04T12:36:58.564Z,0.67
2019-02-04T12:39:29.524Z,2.53
2019-02-04T12:41:59.058Z,2.53
2019-02-04T12:44:28.364Z,1.00
2019-02-04T12:46:57.798Z,1.43
2019-02-04T12:49:27.207Z,0.90
2019-02-04T12:55:04.676Z,0.53
2019-02-04T12:57:34.213Z,0.80
2019-02-04T13:03:19.724Z,1.10
2019-02-04T13:05:53.300Z,2.17
2019-02-04T13:08:23.131Z,1.27
2019-02-04T13:10:52.405Z,1.10
2019-02-04T13:16:18.343Z,1.40
2019-02-04T13:18:48.072Z,1.33
2019-02-04T13:21:17.350Z,1.53
2019-02-04T13:23:47.207Z,3.10
2019-02-04T13:26:16.478Z,1.87
2019-02-04T13:28:46.411Z,4.23
2019-02-04T13:31:15.682Z,3.03
2019-02-04T13:36:33.860Z,4.70
2019-02-04T13:41:53.445Z,3.60
2019-02-04T13:44:22.894Z,4.27
2019-02-04T13:46:52.172Z,7.50
2019-02-04T13:49:23.445Z,8.30
2019-02-04T13:51:57.491Z,7.33
2019-02-04T13:54:23.761Z,7.93
2019-02-04T13:56:53.117Z,8.70
2019-02-04T13:59:22.450Z,7.97
2019-02-04T14:01:51.748Z,10.23
2019-02-04T14:04:21.124Z,10.17
2019-02-04T14:06:50.440Z,9.27
2019-02-04T14:09:23.087Z,10.40
2019-02-04T14:12:11.350Z,10.37
2019-02-04T14:14:41.270Z,11.30
2019-02-04T14:17:32.580Z,12.47
2019-02-04T14:20:02.407Z,10.57
2019-02-04T14:25:43.232Z,11.63
2019-02-04T14:28:13.415Z,12.13
2019-02-04T14:30:43.794Z,13.97
2019-02-04T14:33:13.745Z,13.70
2019-02-04T14:35:45.949Z,14.63
2019-02-04T14:38:34.587Z,16.57
2019-02-04T14:41:23.455Z,14.35
2019-02-04T14:44:19.978Z,14.30
2019-02-04T14:47:14.469Z,15.80
2019-02-04T14:50:09.199Z,12.37
2019-02-04T14:53:16.552Z,18.77
2019-02-04T14:56:24.279Z,17.53
2019-02-04T14:59:32.587Z,20.97
2019-02-04T15:05:28.698Z,15.43
2019-02-04T15:08:37.053Z,18.10
2019-02-04T15:11:44.709Z,16.60
2019-02-04T15:14:52.074Z,16.13
2019-02-04T15:18:00.090Z,19.53
2019-02-04T15:21:07.542Z,20.70
2019-02-04T15:24:20.043Z,23.00
2019-02-04T15:27:27.393Z,14.77
2019-02-04T15:30:34.879Z,19.27
2019-02-04T15:33:26.825Z,18.83
2019-02-04T15:36:34.211Z,20.03
2019-02-04T15:39:44.877Z,23.33
2019-02-04T15:42:32.433Z,23.97
2019-02-04T15:45:36.495Z,20.00
2019-02-04T15:48:29.815Z,19.60
2019-02-04T15:51:23.518Z,20.67
2019-02-04T15:54:32.509Z,15.87
2019-02-04T15:57:01.868Z,14.23
2019-02-04T15:59:31.239Z,14.80
2019-02-04T16:02:00.565Z,17.90
2019-02-04T16:04:32.080Z,18.53
2019-02-04T16:07:01.411Z,16.57
2019-02-04T16:09:49.907Z,21.87
2019-02-04T16:12:21.336Z,17.00
2019-02-04T16:14:50.615Z,18.53
2019-02-04T16:17:20.095Z,11.20
2019-02-04T16:19:49.451Z,17.10
2019-02-04T16:22:19.426Z,12.17
2019-02-04T16:24:48.902Z,15.27
2019-02-04T16:27:18.345Z,16.60
2019-02-04T16:29:47.694Z,17.03
2019-02-04T16:32:17.672Z,15.60
2019-02-04T16:34:47.022Z,14.53
2019-02-04T16:37:16.565Z,21.07
2019-02-04T16:39:47.591Z,14.60
2019-02-04T16:42:16.909Z,13.93
2019-02-04T16:47:20.960Z,15.90
2019-02-04T16:49:50.402Z,17.13
2019-02-04T16:52:19.694Z,14.23
2019-02-04T16:54:49.239Z,13.30
2019-02-04T16:57:18.585Z,14.93
2019-02-04T16:59:48.122Z,15.73
2019-02-04T17:02:17.440Z,13.83
2019-02-04T17:04:47.044Z,12.77
2019-02-04T17:07:16.329Z,13.37
2019-02-04T17:10:04.704Z,11.33
2019-02-04T17:12:34.424Z,9.73
2019-02-04T17:15:03.851Z,16.60
2019-02-04T17:17:33.295Z,11.33
2019-02-04T17:23:06.252Z,10.87
2019-02-04T17:25:35.655Z,12.27
2019-02-04T17:28:46.128Z,13.30
2019-02-04T17:31:15.395Z,12.27
2019-02-04T17:33:44.879Z,11.97
2019-02-04T17:38:49.279Z,12.80
2019-02-04T17:41:19.079Z,9.67
2019-02-04T17:43:48.538Z,13.03
2019-02-04T17:46:18.235Z,11.67
2019-02-04T17:48:47.514Z,6.40
2019-02-04T17:51:17.094Z,10.93
2019-02-04T17:53:46.443Z,11.30
2019-02-04T17:56:16.161Z,10.83
2019-02-04T17:58:45.446Z,8.07
2019-02-04T18:01:15.394Z,11.17
2019-02-04T18:03:44.716Z,8.97
2019-02-04T18:06:14.269Z,8.80
2019-02-04T18:08:43.596Z,7.50
2019-02-04T18:11:13.729Z,8.97
2019-02-04T18:16:33.255Z,9.80
2019-02-04T18:19:03.019Z,9.03
2019-02-04T18:21:32.706Z,8.20
2019-02-04T18:24:02.137Z,8.80
2019-02-04T18:26:50.504Z,11.23
2019-02-04T18:29:19.800Z,11.50
2019-02-04T18:31:49.436Z,9.43
2019-02-04T18:34:18.766Z,8.10
2019-02-04T18:36:48.244Z,13.37
2019-02-04T18:39:19.287Z,11.63
2019-02-04T18:42:07.751Z,12.10
2019-02-04T18:44:56.297Z,9.07
2019-02-04T18:47:25.668Z,8.73
2019-02-04T18:49:54.972Z,11.40
2019-02-04T18:52:24.776Z,10.90
2019-02-04T18:54:54.048Z,7.60
2019-02-04T18:57:23.511Z,10.17
2019-02-04T18:59:52.826Z,11.57
2019-02-04T19:02:22.279Z,12.47
2019-02-04T19:04:51.619Z,11.30
2019-02-04T19:07:21.198Z,13.13
2019-02-04T19:10:09.493Z,8.37
2019-02-04T19:12:38.935Z,8.70
2019-02-04T19:15:15.167Z,9.37
2019-02-04T19:17:44.916Z,11.20
2019-02-04T19:23:31.607Z,13.30
2019-02-04T19:26:01.393Z,7.60
2019-02-04T19:28:30.709Z,8.63
2019-02-04T19:31:38.042Z,13.57
2019-02-04T19:34:07.515Z,11.80
2019-02-04T19:36:36.972Z,12.07
2019-02-04T19:42:20.737Z,10.13
2019-02-04T19:44:50.272Z,10.50
2019-02-04T19:47:19.690Z,10.33
2019-02-04T19:49:49.290Z,11.20
2019-02-04T19:52:18.596Z,9.83
2019-02-04T19:55:01.103Z,10.13
2019-02-04T19:57:33.515Z,8.50
2019-02-04T20:00:03.529Z,10.63
2019-02-04T20:02:33.447Z,9.40
2019-02-04T20:05:03.026Z,6.73
2019-02-04T20:07:32.740Z,7.70
2019-02-04T20:10:02.074Z,12.23
2019-02-04T20:12:31.580Z,10.10
2019-02-04T20:15:01.206Z,11.43
2019-02-04T20:17:30.549Z,10.87
2019-02-04T20:20:19.156Z,15.07
2019-02-04T20:23:07.714Z,12.63
2019-02-04T20:25:37.073Z,9.17
2019-02-04T20:28:08.404Z,12.20
2019-02-04T20:30:45.798Z,13.73
2019-02-04T20:33:10.866Z,10.37
2019-02-04T20:35:40.332Z,14.10
2019-02-04T20:38:09.833Z,10.23
2019-02-04T20:40:39.134Z,14.97
2019-02-04T20:43:09.016Z,14.13
2019-02-04T20:45:38.465Z,12.30
2019-02-04T20:48:10.271Z,8.77
2019-02-04T20:50:40.699Z,10.67
2019-02-04T20:53:29.234Z,13.77
2019-02-04T20:55:58.916Z,11.28
2019-02-04T20:58:28.415Z,10.20
2019-02-04T21:00:57.714Z,11.83
2019-02-04T21:03:27.493Z,10.33
2019-02-04T21:08:45.036Z,14.73
2019-02-04T21:11:14.389Z,14.20
2019-02-04T21:13:43.707Z,12.70
2019-02-04T21:16:13.120Z,12.47
2019-02-04T21:19:02.100Z,11.17
2019-02-04T21:21:31.399Z,12.93
2019-02-04T21:24:00.894Z,12.97
2019-02-04T21:26:30.264Z,13.83
2019-02-04T21:29:01.296Z,12.63
2019-02-04T21:31:30.584Z,15.30
2019-02-04T21:34:00.193Z,18.67
2019-02-04T21:36:29.538Z,10.60
2019-02-04T21:38:59.383Z,17.10
2019-02-04T21:41:47.949Z,15.40
2019-02-04T21:44:17.297Z,19.23
2019-02-04T21:46:46.806Z,18.93
2019-02-04T21:49:16.100Z,21.90
2019-02-04T21:51:45.532Z,20.27
2019-02-04T21:54:16.560Z,22.20
2019-02-04T21:56:45.836Z,19.60
2019-02-04T21:59:15.163Z,19.70
2019-02-04T22:02:03.431Z,19.47
2019-02-04T22:04:32.891Z,21.63
2019-02-04T22:07:02.179Z,19.00
2019-02-04T22:09:31.500Z,20.40
2019-02-04T22:12:00.813Z,16.03
2019-02-04T22:14:30.340Z,16.63
2019-02-04T22:16:59.640Z,17.67
2019-02-04T22:19:29.261Z,21.83
2019-02-04T22:21:58.600Z,16.43
2019-02-04T22:24:28.011Z,25.00
2019-02-04T22:26:57.321Z,24.80
2019-02-04T22:29:26.844Z,22.73
2019-02-04T22:31:56.125Z,26.90
2019-02-04T22:34:27.417Z,25.47
2019-02-04T22:36:56.725Z,17.47
2019-02-04T22:39:26.140Z,19.93
2019-02-04T22:41:55.441Z,22.17
2019-02-04T22:44:24.942Z,21.30
2019-02-04T22:46:54.221Z,17.83
2019-02-04T22:49:23.679Z,15.23
2019-02-04T22:51:54.692Z,23.47
2019-02-04T22:54:24.131Z,19.30
2019-02-04T22:56:53.475Z,19.30
2019-02-04T23:02:16.366Z,16.43
2019-02-04T23:04:45.974Z,21.13
2019-02-04T23:07:15.276Z,21.77
2019-02-04T23:09:44.801Z,18.93
2019-02-04T23:12:14.127Z,20.03
2019-02-04T23:14:45.202Z,18.67
2019-02-04T23:17:14.490Z,14.20
2019-02-04T23:19:43.992Z,14.73
2019-02-04T23:22:13.275Z,18.10
2019-02-04T23:24:42.856Z,16.70
2019-02-04T23:27:24.101Z,16.73
2019-02-04T23:29:53.422Z,13.87
2019-02-04T23:32:22.703Z,17.47
2019-02-04T23:34:52.206Z,16.77
2019-02-04T23:37:21.494Z,15.10
2019-02-04T23:39:51.353Z,23.40
2019-02-04T23:42:20.769Z,19.67
2019-02-04T23:44:50.537Z,15.10
2019-02-04T23:47:19.805Z,15.83
2019-02-04T23:49:49.455Z,18.23
2019-02-04T23:52:18.738Z,14.00
2019-02-04T23:54:48.382Z,13.07
2019-02-04T23:57:36.714Z,14.27
